Time;durP1;ratioP1;P1;durP2;ratioP2;P2;SDS_P1;SDS_P2;PMS_P1;PMS_P2;Temp;Humidity;BMP_temperature;BMP_pressure;BME280_temperature;BME280_humidity;BME280_pressure;Samples;Min_cycle;Max_cycle;Signal;HPM_P1;HPM_P2
2022/10/21 00:02:03;;;;;;;0.83;0.63;;;17.20;99.90;17.90;100537.00;;;;5091354;28;20180;-78
2022/10/21 00:05:04;;;;;;;0.40;0.40;;;17.10;99.90;17.80;100526.00;;;;5057339;28;20183;-77
2022/10/21 00:07:57;;;;;;;0.30;0.30;;;17.00;99.90;18.00;100525.00;;;;5074120;28;20213;-77
2022/10/21 00:11:02;;;;;;;0.20;0.20;;;17.00;99.90;17.80;100535.00;;;;5074946;28;20513;-77
2022/10/21 00:14:08;;;;;;;1.90;0.30;;;17.00;99.90;17.90;100546.00;;;;5074497;28;20194;-78
2022/10/21 00:17:22;;;;;;;1.10;1.07;;;17.00;99.90;17.90;100539.00;;;;5074332;28;20187;-77
2022/10/21 00:20:18;;;;;;;2.07;1.10;;;17.00;99.90;17.80;100514.00;;;;5074260;28;20178;-77
2022/10/21 00:23:11;;;;;;;0.40;0.40;;;16.90;99.90;17.70;100534.00;;;;5074097;28;20540;-77
2022/10/21 00:26:20;;;;;;;0.77;0.77;;;16.90;99.90;17.60;100527.00;;;;5074498;28;20182;-77
2022/10/21 00:29:15;;;;;;;1.73;1.70;;;16.90;99.90;18.00;100462.00;;;;5090865;28;20186;-78
2022/10/21 00:32:38;;;;;;;0.20;0.20;;;16.90;99.90;18.00;100506.00;;;;5075933;28;20576;-78
2022/10/21 00:35:44;;;;;;;0.20;0.20;;;16.90;99.90;18.00;100509.00;;;;5070659;28;20207;-78
2022/10/21 00:38:47;;;;;;;0.20;0.20;;;16.90;99.90;18.00;100502.00;;;;5067745;28;20201;-78
2022/10/21 00:41:40;;;;;;;0.33;0.33;;;16.90;99.90;17.60;100503.00;;;;5053721;28;20213;-78
2022/10/21 00:45:01;;;;;;;0.30;0.30;;;16.90;99.90;17.50;100491.00;;;;5067310;28;20218;-78
2022/10/21 00:48:02;;;;;;;0.20;0.20;;;16.80;99.90;17.70;100444.00;;;;5061751;28;20186;-78
2022/10/21 00:50:53;;;;;;;0.20;0.20;;;16.80;99.90;17.70;100491.00;;;;5073648;28;20281;-78
2022/10/21 00:53:59;;;;;;;0.20;0.20;;;16.80;99.90;17.60;100479.00;;;;5074032;28;20229;-78
2022/10/21 00:57:05;;;;;;;0.20;0.20;;;16.80;99.90;17.60;100475.00;;;;5072197;28;20550;-78
2022/10/21 01:00:20;;;;;;;0.70;0.70;;;16.70;99.90;17.50;100483.00;;;;5073693;28;20192;-78
2022/10/21 01:06:38;;;;;;;0.20;0.20;;;16.70;99.90;17.50;100457.00;;;;5073597;28;20531;-78
2022/10/21 01:09:39;;;;;;;0.23;0.23;;;16.60;99.90;17.80;100456.00;;;;5073065;28;20641;-78
2022/10/21 01:12:40;;;;;;;0.20;0.20;;;16.70;99.90;17.70;100455.00;;;;5090197;28;20254;-78
2022/10/21 01:15:38;;;;;;;0.20;0.20;;;16.70;99.90;17.80;100456.00;;;;5073255;28;20190;-78
2022/10/21 01:18:39;;;;;;;0.33;0.33;;;16.70;99.90;17.60;100450.00;;;;5088013;28;20201;-78
2022/10/21 01:21:40;;;;;;;0.20;0.20;;;16.60;99.90;17.90;100444.00;;;;5074041;28;20278;-78
2022/10/21 01:24:37;;;;;;;0.73;0.70;;;16.60;99.90;17.80;100447.00;;;;5074175;28;20178;-78
2022/10/21 01:27:52;;;;;;;0.20;0.20;;;16.60;99.90;17.70;100451.00;;;;5073895;28;20181;-78
2022/10/21 01:31:20;;;;;;;0.20;0.20;;;16.50;99.90;17.50;100444.00;;;;5073390;28;20195;-78
2022/10/21 01:34:22;;;;;;;0.20;0.20;;;16.60;99.90;17.50;100427.00;;;;5071267;28;20671;-77
2022/10/21 01:37:21;;;;;;;0.20;0.20;;;16.40;99.90;17.20;100439.00;;;;5038600;28;20182;-77
2022/10/21 01:40:20;;;;;;;0.60;0.60;;;16.30;99.90;16.90;100436.00;;;;5046996;28;20250;-77
2022/10/21 01:43:14;;;;;;;0.20;0.20;;;16.20;99.90;17.10;100429.00;;;;5055289;28;20259;-77
2022/10/21 01:46:42;;;;;;;0.30;0.30;;;16.20;99.90;16.90;100422.00;;;;5072530;28;20181;-77
2022/10/21 01:49:44;;;;;;;0.20;0.20;;;16.20;99.90;17.10;100420.00;;;;5089269;28;20183;-77
2022/10/21 01:52:47;;;;;;;0.40;0.40;;;16.10;99.90;17.00;100345.00;;;;5073674;28;20220;-78
2022/10/21 01:55:55;;;;;;;0.20;0.20;;;16.10;99.90;16.90;100405.00;;;;5072573;28;20176;-78
2022/10/21 02:02:36;;;;;;;0.30;0.30;;;16.10;99.90;16.90;100410.00;;;;5072844;28;20607;-77
2022/10/21 02:05:41;;;;;;;0.20;0.20;;;16.00;99.90;16.90;100406.00;;;;5072055;28;20262;-77
2022/10/21 02:08:46;;;;;;;0.20;0.20;;;16.00;99.90;16.60;100413.00;;;;5072298;28;20187;-78
2022/10/21 02:11:52;;;;;;;0.20;0.20;;;15.90;99.90;17.00;100357.00;;;;5072091;28;20181;-78
2022/10/21 02:14:43;;;;;;;0.20;0.20;;;15.90;99.90;17.00;100384.00;;;;5072168;28;20184;-78
2022/10/21 02:17:51;;;;;;;0.20;0.20;;;15.90;99.90;16.90;100398.00;;;;5072006;28;20212;-78
2022/10/21 02:21:14;;;;;;;0.20;0.20;;;15.90;99.90;16.90;100391.00;;;;5072081;28;20196;-78
2022/10/21 02:24:10;;;;;;;0.20;0.20;;;15.90;99.90;17.00;100382.00;;;;5073119;28;20538;-77
2022/10/21 02:27:16;;;;;;;0.20;0.20;;;15.90;99.90;16.90;100386.00;;;;5073332;28;20196;-78
2022/10/21 02:30:11;;;;;;;0.27;0.27;;;15.80;99.90;17.00;100388.00;;;;5072205;28;20196;-78
2022/10/21 02:33:10;;;;;;;0.20;0.20;;;15.90;99.90;16.80;100379.00;;;;5071611;28;20223;-78
2022/10/21 02:36:24;;;;;;;0.20;0.20;;;15.80;99.90;16.70;100366.00;;;;5088456;28;20192;-77
2022/10/21 02:39:34;;;;;;;0.20;0.20;;;15.90;99.90;16.80;100370.00;;;;5071808;28;20194;-77
2022/10/21 02:42:57;;;;;;;0.20;0.20;;;15.80;99.90;16.70;100368.00;;;;5071591;28;20450;-77
2022/10/21 02:46:08;;;;;;;0.20;0.20;;;15.70;99.90;16.60;100368.00;;;;5071581;28;20207;-78
2022/10/21 02:49:10;;;;;;;0.20;0.20;;;15.60;99.90;16.70;100351.00;;;;5071830;28;20184;-77
2022/10/21 02:52:19;;;;;;;0.20;0.20;;;15.60;99.90;16.50;100351.00;;;;5072202;28;20185;-77
2022/10/21 02:55:40;;;;;;;0.20;0.20;;;15.50;99.90;16.70;100348.00;;;;5071828;28;20181;-78
2022/10/21 02:59:04;;;;;;;0.20;0.20;;;15.50;99.90;16.50;100360.00;;;;5071558;28;20535;-78
2022/10/21 03:02:22;;;;;;;0.20;0.20;;;15.50;99.90;16.80;100330.00;;;;5072161;28;20188;-78
2022/10/21 03:05:34;;;;;;;0.20;0.20;;;15.60;99.90;16.80;100326.00;;;;5071595;28;20309;-78
2022/10/21 03:08:39;;;;;;;0.30;0.30;;;15.60;99.90;16.40;100333.00;;;;5071525;28;20210;-78
2022/10/21 03:11:38;;;;;;;0.20;0.20;;;15.40;99.90;16.40;100314.00;;;;5071258;28;20192;-78
2022/10/21 03:14:47;;;;;;;0.20;0.20;;;15.40;99.90;16.00;100347.00;;;;5072718;28;20516;-77
2022/10/21 03:18:03;;;;;;;0.30;0.30;;;15.30;99.90;16.30;100338.00;;;;5071116;28;20196;-77
2022/10/21 03:21:22;;;;;;;0.20;0.20;;;15.30;99.90;16.40;100339.00;;;;5075264;28;20190;-78
2022/10/21 03:24:41;;;;;;;1.27;0.60;;;15.30;99.90;16.40;100337.00;;;;5075067;28;20623;-77
2022/10/21 03:27:44;;;;;;;3.60;0.33;;;15.30;99.90;16.10;100303.00;;;;5074928;28;20176;-78
2022/10/21 03:31:02;;;;;;;0.20;0.20;;;15.20;99.90;16.50;100343.00;;;;5075118;28;20190;-77
2022/10/21 03:34:08;;;;;;;0.30;0.30;;;15.30;99.90;16.30;100340.00;;;;5075054;28;20246;-77
2022/10/21 03:37:14;;;;;;;0.40;0.40;;;15.30;99.90;16.00;100303.00;;;;5075090;28;20183;-78
2022/10/21 03:40:03;;;;;;;0.20;0.20;;;15.20;99.90;16.00;100349.00;;;;5074837;28;20179;-77
2022/10/21 03:43:04;;;;;;;0.67;0.67;;;15.20;99.90;16.10;100353.00;;;;5074911;28;20202;-78
2022/10/21 03:46:25;;;;;;;0.40;0.40;;;15.10;99.90;16.00;100357.00;;;;5074672;28;20176;-77
2022/10/21 03:49:33;;;;;;;0.77;0.77;;;15.10;99.90;15.80;100341.00;;;;5075003;28;20273;-78
2022/10/21 03:52:54;;;;;;;0.20;0.20;;;15.10;99.90;15.90;100353.00;;;;5074487;28;20206;-77
2022/10/21 03:55:54;;;;;;;0.57;0.57;;;15.10;99.90;15.80;100365.00;;;;5077033;28;20193;-77
2022/10/21 03:58:58;;;;;;;0.57;0.57;;;15.00;99.90;15.80;100357.00;;;;5074705;28;20669;-78
2022/10/21 04:02:00;;;;;;;0.23;0.23;;;14.90;99.90;15.80;100369.00;;;;5074064;28;20620;-78
2022/10/21 04:05:27;;;;;;;0.30;0.30;;;14.90;99.90;15.90;100380.00;;;;5074632;28;20213;-78
2022/10/21 04:08:05;;;;;;;0.20;0.20;;;15.00;99.90;16.00;100366.00;;;;5074393;28;20586;-78
2022/10/21 04:10:43;;;;;;;0.23;0.23;;;15.00;99.90;15.90;100365.00;;;;5073912;28;20190;-76
2022/10/21 04:13:39;;;;;;;0.20;0.20;;;15.10;99.90;15.80;100370.00;;;;5074235;28;20207;-77
2022/10/21 04:16:32;;;;;;;0.20;0.20;;;15.00;99.90;16.20;100367.00;;;;5074362;28;20178;-77
2022/10/21 04:19:26;;;;;;;0.30;0.30;;;15.10;99.90;15.80;100354.00;;;;5058338;28;20194;-77
2022/10/21 04:22:25;;;;;;;1.13;1.13;;;15.00;99.90;15.90;100364.00;;;;5074107;28;20549;-77
2022/10/21 04:25:11;;;;;;;0.20;0.20;;;15.00;99.90;16.00;100357.00;;;;5073718;28;20222;-77
2022/10/21 04:27:48;;;;;;;0.33;0.33;;;14.90;99.90;15.90;100358.00;;;;5073436;28;20215;-77
2022/10/21 04:30:25;;;;;;;0.30;0.30;;;14.90;99.90;15.90;100357.00;;;;5074012;28;20171;-76
2022/10/21 04:33:34;;;;;;;0.20;0.20;;;15.00;99.90;15.90;100364.00;;;;5074661;28;20221;-77
2022/10/21 04:36:31;;;;;;;0.30;0.30;;;14.90;99.90;16.00;100349.00;;;;5074101;28;20198;-78
2022/10/21 04:39:22;;;;;;;0.20;0.20;;;15.00;99.90;16.10;100340.00;;;;5057201;28;20212;-77
2022/10/21 04:42:25;;;;;;;0.30;0.30;;;15.00;99.90;16.00;100316.00;;;;5073131;28;20200;-77
2022/10/21 04:45:15;;;;;;;0.20;0.20;;;15.00;99.90;16.00;100348.00;;;;5073574;28;20192;-76
2022/10/21 04:47:55;;;;;;;0.40;0.40;;;15.00;99.90;15.80;100360.00;;;;5073528;28;20184;-76
2022/10/21 04:50:57;;;;;;;0.33;0.33;;;14.90;99.90;16.00;100362.00;;;;5073512;28;20625;-77
2022/10/21 04:53:52;;;;;;;1.83;0.50;;;14.90;99.90;16.00;100358.00;;;;5072991;28;20225;-77
2022/10/21 04:57:03;;;;;;;0.40;0.40;;;14.90;99.90;15.80;100355.00;;;;5073720;28;20204;-76
2022/10/21 05:00:15;;;;;;;0.40;0.40;;;14.90;99.90;15.80;100309.00;;;;5073987;28;20329;-77
2022/10/21 05:03:21;;;;;;;0.20;0.20;;;14.90;99.90;16.00;100345.00;;;;5073148;28;20188;-78
2022/10/21 05:06:33;;;;;;;0.57;0.57;;;14.90;99.90;16.00;100335.00;;;;5056516;28;20192;-77
2022/10/21 05:09:36;;;;;;;0.20;0.20;;;15.10;99.90;15.80;100322.00;;;;5073328;28;20180;-78
2022/10/21 05:12:40;;;;;;;0.20;0.20;;;15.00;99.90;16.00;100336.00;;;;5073032;28;20242;-78
2022/10/21 05:15:13;;;;;;;0.20;0.20;;;15.00;99.90;16.20;100336.00;;;;5073156;28;20183;-76
2022/10/21 05:17:55;;;;;;;0.20;0.20;;;15.10;99.90;15.80;100343.00;;;;5074054;28;20175;-76
2022/10/21 05:20:50;;;;;;;0.20;0.20;;;15.00;99.90;16.00;100288.00;;;;5073042;28;20183;-76
2022/10/21 05:23:33;;;;;;;0.20;0.20;;;15.10;99.90;16.50;100299.00;;;;5072626;28;20190;-76
2022/10/21 05:26:16;;;;;;;0.20;0.20;;;15.20;99.90;16.70;100337.00;;;;5073301;28;20180;-76
2022/10/21 05:28:46;;;;;;;0.20;0.20;;;15.30;99.90;16.70;100323.00;;;;5072751;28;20252;-76
2022/10/21 05:31:28;;;;;;;0.20;0.20;;;15.40;99.90;16.60;100336.00;;;;5089315;28;20180;-76
2022/10/21 05:34:02;;;;;;;0.20;0.20;;;15.40;99.90;16.90;100324.00;;;;5072726;28;20238;-76
2022/10/21 05:36:41;;;;;;;0.30;0.30;;;15.50;99.90;17.10;100277.00;;;;5073300;28;20275;-76
2022/10/21 05:39:30;;;;;;;0.30;0.30;;;15.60;99.90;17.00;100270.00;;;;5072730;28;20195;-76
2022/10/21 05:42:14;;;;;;;0.67;0.67;;;15.70;99.90;16.70;100312.00;;;;5055352;28;20192;-76
2022/10/21 05:45:05;;;;;;;0.27;0.27;;;15.60;99.90;16.80;100311.00;;;;5073566;28;20699;-76
2022/10/21 05:47:54;;;;;;;0.30;0.30;;;15.50;99.90;16.70;100294.00;;;;5072708;28;20232;-76
2022/10/21 05:50:32;;;;;;;0.20;0.20;;;15.40;99.90;17.10;100287.00;;;;5056036;28;20227;-77
2022/10/21 05:53:23;;;;;;;0.20;0.20;;;15.60;99.90;17.50;100300.00;;;;5072453;28;20222;-77
2022/10/21 05:56:41;;;;;;;0.20;0.20;;;15.80;99.90;17.10;100304.00;;;;5072726;28;20761;-77
2022/10/21 05:59:37;;;;;;;0.20;0.20;;;15.70;99.90;17.20;100295.00;;;;5055802;28;20199;-77
2022/10/21 06:02:43;;;;;;;0.20;0.20;;;15.80;99.90;17.10;100285.00;;;;5072417;28;20229;-77
2022/10/21 06:05:55;;;;;;;0.40;0.40;;;15.70;99.90;17.10;100285.00;;;;5073247;28;20189;-77
2022/10/21 06:09:06;;;;;;;0.30;0.30;;;15.70;99.90;17.10;100289.00;;;;5072272;28;20709;-77
2022/10/21 06:12:18;;;;;;;0.30;0.30;;;15.70;99.90;16.80;100291.00;;;;5072276;28;20204;-77
2022/10/21 06:15:21;;;;;;;0.30;0.30;;;15.60;99.90;16.40;100308.00;;;;5072090;28;20555;-76
2022/10/21 06:18:14;;;;;;;0.30;0.30;;;15.40;99.90;17.10;100313.00;;;;5072226;28;20550;-77
2022/10/21 06:21:15;;;;;;;0.30;0.30;;;15.60;99.90;17.20;100315.00;;;;5051836;28;20188;-77
2022/10/21 06:24:38;;;;;;;0.20;0.20;;;15.70;99.90;16.80;100305.00;;;;5037875;28;20184;-77
2022/10/21 06:27:47;;;;;;;0.20;0.20;;;15.60;99.90;17.20;100320.00;;;;5052200;28;20175;-77
2022/10/21 06:30:26;;;;;;;0.30;0.30;;;15.60;99.90;17.00;100316.00;;;;5053314;28;20177;-77
2022/10/21 06:33:00;;;;;;;0.23;0.23;;;15.70;99.90;16.80;100315.00;;;;5051650;28;20314;-77
2022/10/21 06:35:46;;;;;;;0.30;0.30;;;15.70;99.90;16.80;100320.00;;;;5053143;28;20212;-75
2022/10/21 06:38:15;;;;;;;0.20;0.20;;;15.70;99.90;16.50;100339.00;;;;5052324;28;20188;-77
2022/10/21 06:41:12;;;;;;;0.20;0.20;;;15.50;99.90;16.50;100336.00;;;;5068458;28;20591;-76
2022/10/21 06:44:01;;;;;;;0.40;0.40;;;15.50;99.90;16.70;100349.00;;;;5051940;28;20191;-77
2022/10/21 06:46:53;;;;;;;0.30;0.30;;;15.50;99.90;16.80;100347.00;;;;5051683;28;20209;-77
2022/10/21 06:49:56;;;;;;;0.20;0.20;;;15.60;99.90;16.50;100335.00;;;;5035419;28;20183;-77
2022/10/21 06:53:20;;;;;;;0.30;0.30;;;15.60;99.90;17.00;100313.00;;;;5051671;28;20208;-76
2022/10/21 06:56:15;;;;;;;0.33;0.33;;;15.70;99.90;17.10;100349.00;;;;5055785;28;20179;-76
2022/10/21 06:59:16;;;;;;;0.20;0.20;;;15.70;99.90;17.00;100326.00;;;;5056652;28;20200;-78
2022/10/21 07:02:02;;;;;;;0.20;0.20;;;15.80;99.90;16.40;100384.00;;;;5055795;28;20685;-78
2022/10/21 07:05:09;;;;;;;0.20;0.20;;;15.50;99.90;16.30;100379.00;;;;5055479;28;20185;-77
2022/10/21 07:08:07;;;;;;;0.30;0.30;;;15.40;99.90;16.50;100389.00;;;;5055057;28;20217;-77
2022/10/21 07:11:16;;;;;;;0.50;0.50;;;15.40;99.90;16.40;100372.00;;;;5072088;28;20582;-77
2022/10/21 07:13:49;;;;;;;0.50;0.50;;;15.50;99.90;16.70;100343.00;;;;5054845;28;20197;-77
2022/10/21 07:17:04;;;;;;;0.20;0.20;;;15.60;99.90;16.70;100350.00;;;;5055380;28;20267;-76
2022/10/21 07:19:31;;;;;;;0.20;0.20;;;15.60;99.90;16.50;100397.00;;;;5049311;28;20184;-76
2022/10/21 07:21:58;;;;;;;0.33;0.33;;;15.60;99.90;16.80;100393.00;;;;5075450;28;20199;-76
2022/10/21 07:24:29;;;;;;;0.30;0.30;;;15.70;99.90;16.80;100389.00;;;;5074302;28;20183;-76
2022/10/21 07:26:55;;;;;;;0.20;0.20;;;15.80;99.90;16.60;100397.00;;;;5075307;28;20178;-76
2022/10/21 07:29:21;;;;;;;0.93;0.50;;;15.80;99.90;16.50;100391.00;;;;5076684;28;20645;-76
2022/10/21 07:31:52;;;;;;;0.60;0.60;;;15.70;99.90;16.70;100374.00;;;;5087977;28;20271;-76
2022/10/21 07:34:20;;;;;;;0.20;0.20;;;15.70;99.90;17.10;100351.00;;;;5071935;28;20183;-76
2022/10/21 07:36:52;;;;;;;0.30;0.30;;;15.90;99.90;16.80;100407.00;;;;5055317;28;20193;-76
2022/10/21 07:39:30;;;;;;;0.63;0.63;;;15.90;99.90;17.00;100399.00;;;;5055157;28;20236;-76
2022/10/21 07:41:59;;;;;;;0.30;0.30;;;16.00;99.90;17.00;100399.00;;;;5054719;28;20608;-76
2022/10/21 07:44:46;;;;;;;0.20;0.20;;;16.00;99.90;17.10;100406.00;;;;5084998;28;20190;-76
2022/10/21 07:47:15;;;;;;;0.40;0.40;;;16.10;99.90;17.10;100415.00;;;;5075534;28;20193;-76
2022/10/21 07:49:58;;;;;;;0.40;0.40;;;16.10;99.90;17.00;100422.00;;;;5075369;28;20653;-76
2022/10/21 07:52:24;;;;;;;0.93;0.93;;;16.10;99.90;17.00;100416.00;;;;5091605;28;20194;-75
2022/10/21 07:54:50;;;;;;;0.70;0.70;;;16.20;99.90;16.80;100378.00;;;;5074769;28;20188;-76
2022/10/21 07:57:24;;;;;;;0.33;0.33;;;16.10;99.90;17.20;100424.00;;;;5068155;28;20189;-76
2022/10/21 07:59:53;;;;;;;0.20;0.20;;;16.20;99.90;16.90;100422.00;;;;5073656;28;20276;-76
2022/10/21 08:02:19;;;;;;;0.40;0.40;;;16.10;99.90;17.40;100423.00;;;;5075201;28;20670;-76
2022/10/21 08:04:48;;;;;;;0.30;0.30;;;16.30;99.90;17.00;100385.00;;;;5080768;28;20268;-76
2022/10/21 08:07:14;;;;;;;0.27;0.27;;;16.20;99.90;17.10;100423.00;;;;5083087;28;20196;-76
2022/10/21 08:09:51;;;;;;;0.80;0.77;;;16.20;99.90;16.80;100428.00;;;;5074285;28;20557;-76
2022/10/21 08:12:17;;;;;;;0.30;0.30;;;16.10;99.90;16.80;100429.00;;;;5057769;28;20306;-75
2022/10/21 08:15:17;;;;;;;0.20;0.20;;;16.00;99.90;17.10;100425.00;;;;5074395;28;20268;-76
2022/10/21 08:17:43;;;;;;;0.50;0.50;;;16.10;99.90;17.10;100416.00;;;;5058704;28;20548;-76
2022/10/21 08:20:31;;;;;;;0.60;0.60;;;16.20;99.90;17.30;100383.00;;;;5057464;28;20188;-76
2022/10/21 08:23:21;;;;;;;0.20;0.20;;;16.30;99.90;17.40;100425.00;;;;5056872;28;20193;-77
2022/10/21 08:25:53;;;;;;;0.43;0.43;;;16.40;99.90;17.40;100384.00;;;;5057622;28;20224;-76
2022/10/21 08:28:58;;;;;;;0.93;0.93;;;16.40;99.90;17.20;100422.00;;;;5057308;28;20189;-76
2022/10/21 08:31:40;;;;;;;0.20;0.20;;;16.40;99.90;17.30;100413.00;;;;5073572;28;20198;-76
2022/10/21 08:34:12;;;;;;;0.30;0.30;;;16.50;99.90;17.80;100433.00;;;;5055428;28;20274;-70
2022/10/21 08:36:53;;;;;;;0.30;0.30;;;16.60;99.90;17.70;100430.00;;;;5052439;28;20199;-75
2022/10/21 08:40:44;;;;;;;0.20;0.20;;;16.70;99.90;17.60;100427.00;;;;5056144;28;20266;-75
2022/10/21 08:43:36;;;;;;;0.30;0.30;;;16.80;99.90;17.70;100420.00;;;;5079924;28;20244;-75
2022/10/21 08:46:31;;;;;;;1.57;1.47;;;16.90;99.90;18.00;100413.00;;;;5052016;28;20199;-75
2022/10/21 08:49:27;;;;;;;2.27;0.40;;;17.10;99.90;18.10;100391.00;;;;5056705;28;20581;-75
2022/10/21 08:52:22;;;;;;;0.50;0.50;;;17.20;99.90;17.90;100442.00;;;;5068960;28;20696;-65
2022/10/21 08:55:43;;;;;;;1.40;1.27;;;17.30;99.90;18.00;100430.00;;;;5072843;28;20175;-76
2022/10/21 08:58:38;;;;;;;0.30;0.30;;;17.40;99.90;18.30;100434.00;;;;5064372;28;20647;-74
2022/10/21 09:01:42;;;;;;;0.70;0.57;;;17.40;99.90;18.50;100404.00;;;;5072392;28;20188;-74
2022/10/21 09:04:25;;;;;;;0.57;0.50;;;17.60;99.90;18.30;100433.00;;;;5072562;28;20265;-76
2022/10/21 09:07:45;;;;;;;0.20;0.20;;;17.60;99.90;18.30;100430.00;;;;5073713;28;20655;-74
2022/10/21 09:10:47;;;;;;;0.20;0.20;;;17.50;99.90;18.60;100432.00;;;;5073973;28;20208;-74
2022/10/21 09:14:44;;;;;;;0.20;0.20;;;17.70;99.90;18.70;100425.00;;;;5073943;28;20290;-76
2022/10/21 09:19:02;;;;;;;0.20;0.20;;;17.90;99.90;19.00;100385.00;;;;5050929;28;20358;-74
2022/10/21 09:21:58;;;;;;;0.20;0.20;;;18.10;99.90;19.20;100427.00;;;;5009436;28;20194;-75
2022/10/21 09:24:59;;;;;;;0.32;0.32;;;18.50;99.90;19.70;100317.00;;;;4995778;28;20238;-76
2022/10/21 09:27:43;;;;;;;1.10;0.28;;;18.70;99.90;19.50;100421.00;;;;5013462;28;20214;-76
2022/10/21 09:30:25;;;;;;;0.43;0.43;;;18.80;99.90;20.40;100424.00;;;;5031804;28;20191;-79
2022/10/21 09:33:52;;;;;;;0.20;0.20;;;19.10;99.90;20.80;100436.00;;;;5055608;28;20303;-78
2022/10/21 09:37:05;;;;;;;0.20;0.20;;;19.60;99.90;21.20;100404.00;;;;5073922;28;20178;-77
2022/10/21 09:40:07;;;;;;;0.10;0.10;;;20.00;99.90;22.60;100457.00;;;;5054191;28;20327;-76
2022/10/21 09:42:54;;;;;;;0.28;0.28;;;20.90;99.90;22.10;100459.00;;;;5085412;28;20260;-77
2022/10/21 09:46:13;;;;;;;0.32;0.20;;;21.10;99.90;21.60;100449.00;;;;5052883;28;20175;-77
2022/10/21 09:49:50;;;;;;;0.63;0.47;;;20.90;99.90;21.40;100471.00;;;;5053674;28;20186;-77
2022/10/21 09:53:04;;;;;;;0.13;0.13;;;20.50;99.90;22.40;100484.00;;;;5054116;28;20673;-77
2022/10/21 09:56:18;;;;;;;0.10;0.10;;;20.90;99.90;21.80;100475.00;;;;5035865;28;20189;-78
2022/10/21 09:59:11;;;;;;;0.10;0.10;;;21.00;99.90;21.60;100476.00;;;;5052418;28;20634;-77
2022/10/21 10:02:32;;;;;;;0.10;0.10;;;20.90;99.90;22.40;100487.00;;;;5069089;28;20192;-80
2022/10/21 10:05:42;;;;;;;0.10;0.10;;;21.30;99.90;22.00;100494.00;;;;5052089;28;20197;-79
2022/10/21 10:08:34;;;;;;;0.10;0.10;;;21.30;99.90;21.50;100485.00;;;;5052103;28;20282;-79
2022/10/21 10:11:27;;;;;;;0.10;0.10;;;20.60;99.90;20.90;100476.00;;;;5042492;28;20655;-78
2022/10/21 10:18:23;;;;;;;0.20;0.20;;;20.20;99.90;22.00;100483.00;;;;5063262;28;20193;-78
2022/10/21 10:33:34;;;;;;;0.20;0.20;;;19.90;99.90;20.90;100488.00;;;;5150936;27;20601;-79
2022/10/21 10:37:11;;;;;;;0.45;0.45;;;20.10;99.90;20.40;100489.00;;;;5130432;28;20178;-79
2022/10/21 10:39:54;;;;;;;0.20;0.20;;;20.00;99.90;20.40;100487.00;;;;5100678;28;20278;-78
2022/10/21 10:42:50;;;;;;;0.10;0.10;;;19.80;99.90;21.30;100495.00;;;;5130129;28;20188;-78
2022/10/21 10:45:26;;;;;;;0.13;0.13;;;19.90;99.90;21.20;100423.00;;;;5112964;28;20278;-74
2022/10/21 10:48:24;;;;;;;0.13;0.13;;;20.20;99.90;21.30;100493.00;;;;5130184;28;20220;-78
2022/10/21 10:50:53;;;;;;;0.65;0.35;;;20.40;99.90;21.50;100496.00;;;;5130700;28;20615;-78
2022/10/21 10:53:33;;;;;;;0.52;0.25;;;20.40;99.90;20.60;100486.00;;;;5130073;28;20199;-71
2022/10/21 10:56:24;;;;;;;0.30;0.30;;;20.10;99.90;21.20;100488.00;;;;5129902;28;20187;-78
2022/10/21 10:59:44;;;;;;;0.20;0.20;;;20.00;99.90;20.90;100489.00;;;;5113999;28;20691;-78
2022/10/21 11:02:47;;;;;;;0.25;0.25;;;20.00;99.90;20.40;100483.00;;;;5088739;28;20207;-78
2022/10/21 11:05:42;;;;;;;0.10;0.10;;;19.90;99.90;20.20;100427.00;;;;5129792;28;20178;-78
2022/10/21 11:08:34;;;;;;;0.40;0.20;;;19.50;99.90;21.00;100492.00;;;;5130068;28;20187;-78
2022/10/21 11:15:14;;;;;;;0.10;0.10;;;20.00;99.90;21.00;100490.00;;;;5018895;28;20186;-77
2022/10/21 11:18:07;;;;;;;0.15;0.15;;;20.30;99.90;20.60;100484.00;;;;5014533;28;20190;-78
2022/10/21 11:24:12;;;;;;;0.15;0.15;;;20.10;99.90;20.50;100486.00;;;;5032254;28;20178;-77
2022/10/21 11:27:22;;;;;;;0.10;0.10;;;19.70;99.90;20.50;100494.00;;;;5128704;28;20191;-78
2022/10/21 11:30:12;;;;;;;0.10;0.10;;;19.80;99.90;21.30;100499.00;;;;5129273;28;20618;-77
2022/10/21 11:33:18;;;;;;;0.10;0.10;;;20.10;99.90;20.60;100481.00;;;;5130384;27;20211;-77
2022/10/21 11:36:20;;;;;;;0.22;0.22;;;20.00;99.90;20.20;100485.00;;;;5047528;28;20186;-77
2022/10/21 11:39:22;;;;;;;0.20;0.20;;;19.70;99.90;20.30;100487.00;;;;5129397;28;20234;-77
2022/10/21 11:42:28;;;;;;;0.10;0.10;;;19.70;99.90;21.40;100492.00;;;;5130453;27;20183;-77
2022/10/21 11:45:31;;;;;;;1.20;1.10;;;20.10;99.90;21.60;100493.00;;;;5095848;28;20219;-77
2022/10/21 11:48:14;;;;;;;2.38;1.88;;;20.60;99.90;22.20;100507.00;;;;5116670;28;20180;-66
2022/10/21 11:51:04;;;;;;;0.93;0.57;;;21.10;99.90;21.80;100498.00;;;;5116375;28;20570;-77
2022/10/21 11:53:58;;;;;;;0.20;0.20;;;21.10;99.90;22.00;100500.00;;;;5116211;28;20287;-78
2022/10/21 11:56:38;;;;;;;1.30;0.30;;;21.10;99.90;23.30;100514.00;;;;5108906;27;20559;-75
2022/10/21 11:59:21;;;;;;;0.47;0.47;;;21.70;99.90;23.80;100540.00;;;;5114939;28;20290;-75
2022/10/21 12:02:42;;;;;;;1.27;0.55;;;22.40;99.90;23.30;100529.00;;;;5116282;28;20188;-75
2022/10/21 12:05:32;;;;;;;0.10;0.10;;;22.10;99.90;23.50;100534.00;;;;5116375;28;20171;-80
2022/10/21 12:08:22;;;;;;;1.55;0.40;;;22.20;99.90;23.50;100538.00;;;;5114518;28;20188;-80
2022/10/21 12:11:12;;;;;;;0.85;0.68;;;22.40;99.90;22.80;100534.00;;;;5114950;28;20637;-80
2022/10/21 12:13:50;;;;;;;0.98;0.20;;;22.20;99.90;23.10;100527.00;;;;5115031;28;20160;-79
2022/10/21 12:16:37;;;;;;;0.10;0.10;;;22.00;99.90;23.70;100536.00;;;;5097883;28;20226;-80
2022/10/21 12:19:14;;;;;;;0.55;0.40;;;22.40;99.90;23.80;100522.00;;;;5114709;28;20177;-79
2022/10/21 12:22:08;;;;;;;0.10;0.10;;;22.50;99.90;24.20;100549.00;;;;5097490;28;20631;-80
2022/10/21 12:25:29;;;;;;;0.10;0.10;;;22.50;99.90;24.70;100560.00;;;;5097453;28;20204;-80
2022/10/21 12:28:27;;;;;;;0.20;0.20;;;22.90;99.90;23.50;100531.00;;;;5114347;28;20574;-80
2022/10/21 12:31:08;;;;;;;0.38;0.38;;;22.60;99.90;23.10;100521.00;;;;5105698;28;20280;-80
2022/10/21 12:34:02;;;;;;;0.20;0.20;;;22.30;99.90;22.80;100519.00;;;;5114642;28;20240;-80
2022/10/21 12:36:49;;;;;;;0.10;0.10;;;22.00;99.90;22.50;100469.00;;;;5114538;28;20645;-68
2022/10/21 12:39:33;;;;;;;0.10;0.10;;;21.80;99.90;24.00;100533.00;;;;5097581;28;20199;-79
2022/10/21 12:42:15;;;;;;;0.10;0.10;;;22.30;99.90;23.80;100540.00;;;;5115910;28;20203;-80
2022/10/21 12:44:49;;;;;;;0.25;0.25;;;22.70;99.90;23.10;100527.00;;;;5114695;28;20176;-79
2022/10/21 12:47:27;;;;;;;0.10;0.10;;;22.50;99.90;22.80;100520.00;;;;5114212;28;20168;-80
2022/10/21 12:50:20;;;;;;;0.20;0.20;;;22.20;99.90;22.70;100478.00;;;;5115618;28;20245;-79
2022/10/21 12:53:21;;;;;;;0.30;0.30;;;22.00;99.90;22.90;100486.00;;;;5113948;28;20203;-80
2022/10/21 12:55:52;;;;;;;0.10;0.10;;;21.80;99.90;22.40;100523.00;;;;5113544;28;20248;-79
2022/10/21 12:58:43;;;;;;;0.10;0.10;;;21.90;99.90;23.80;100506.00;;;;5096954;28;20179;-80
2022/10/21 13:01:44;;;;;;;0.10;0.10;;;22.30;99.90;24.50;100527.00;;;;5104044;28;20573;-79
2022/10/21 13:04:31;;;;;;;0.68;0.68;;;22.90;99.90;23.50;100547.00;;;;5114397;28;20530;-80
2022/10/21 13:07:02;;;;;;;0.10;0.10;;;23.10;99.90;23.50;100533.00;;;;5114723;28;20184;-79
2022/10/21 13:09:45;;;;;;;0.13;0.13;;;22.60;99.90;23.50;100525.00;;;;5115071;27;20183;-80
2022/10/21 13:12:10;;;;;;;0.20;0.20;;;22.30;99.90;24.40;100540.00;;;;5096605;28;20294;-80
2022/10/21 13:14:51;;;;;;;8.57;0.55;;;22.60;99.90;22.50;100516.00;;;;5113810;28;20207;-80
2022/10/21 13:17:51;;;;;;;0.57;0.57;;;22.10;99.90;21.90;100483.00;;;;5113515;28;20195;-79
2022/10/21 13:20:20;;;;;;;0.20;0.20;;;21.30;99.90;21.90;100484.00;;;;5096513;28;20200;-80
2022/10/21 13:22:56;;;;;;;0.20;0.20;;;21.10;99.90;22.00;100486.00;;;;5114975;28;20184;-80
2022/10/21 13:25:31;;;;;;;0.20;0.20;;;21.00;99.90;22.50;100498.00;;;;5113721;28;20164;-80